No particular awareness of the weather is required.    There are no Weather-warnings


Meteo18 Weather Cam more information Meteo18 Weather Cam


Thunder radar more information blitzortung!


Rain radar more information rain snow radar


Visit our other weather sites:

Template documentation
and downloads

And another site



Weather Underground History page Text

Daily Summary for October 10, 2017 Units:  Metric    English   Both
« Previous Day
Next Day »
Daily Weekly Monthly Yearly Custom
  High: Low: Average:
Temperature: 17.7 °C 9.3 °C 13.3 °C
Dew Point: 14.2 °C 8.7 °C 11.7 °C
Humidity: 98 % 77 % 90 %
Wind Speed: 17.7 km/h 0.0 km/h 3.1 km/h
Wind Gust: 24.1 km/h - -
Wind:- - WSW
Pressure: 1022.6 hPa 1020.9 hPa -
Precipitation: 0.3 mm    
Historical Graphs
 
 
Tabular Data for October 10, 2017
Time Temperature Dew Point Pressure Wind Wind Speed Wind Gust Humidity Rainfall Rate (Hourly)
00:07 11.9 °C 11.0 °C 1021.9 hPa Calm     94 % 0.0 mm
00:12 11.9 °C 11.0 °C 1022.2 hPa Calm   1.6 km/h 94 % 0.0 mm
00:17 11.8 °C 10.9 °C 1022.2 hPa Calm   1.6 km/h 94 % 0.0 mm
00:22 11.7 °C 10.8 °C 1022.2 hPa Calm     94 % 0.0 mm
00:32 11.6 °C 10.7 °C 1021.9 hPa Calm     94 % 0.0 mm
00:42 11.3 °C 10.4 °C 1021.9 hPa Calm     94 % 0.0 mm
00:52 11.1 °C 10.3 °C 1021.9 hPa Calm   1.6 km/h 95 % 0.0 mm
00:57 10.9 °C 10.0 °C 1021.9 hPa Calm   1.6 km/h 94 % 0.0 mm
01:02 10.8 °C 10.0 °C 1021.9 hPa Calm     95 % 0.0 mm
01:07 10.7 °C 9.9 °C 1021.9 hPa Calm     95 % 0.0 mm
01:12 10.7 °C 9.9 °C 1021.9 hPa Calm     95 % 0.0 mm
01:17 10.6 °C 9.8 °C 1021.9 hPa Calm     95 % 0.0 mm
01:22 10.6 °C 9.8 °C 1021.9 hPa Calm     95 % 0.0 mm
01:32 10.3 °C 9.5 °C 1021.9 hPa Calm     95 % 0.0 mm
01:37 10.1 °C 9.3 °C 1021.9 hPa Calm     95 % 0.0 mm
01:42 10.1 °C 9.5 °C 1021.9 hPa Calm     96 % 0.0 mm
01:47 10.2 °C 9.6 °C 1021.9 hPa Calm     96 % 0.0 mm
01:52 10.2 °C 9.6 °C 1021.6 hPa Calm     96 % 0.0 mm
02:02 10.2 °C 9.6 °C 1021.9 hPa Calm     96 % 0.0 mm
02:07 10.1 °C 9.5 °C 1021.6 hPa Calm     96 % 0.0 mm
02:12 10.0 °C 9.4 °C 1021.6 hPa Calm     96 % 0.0 mm
02:22 9.8 °C 9.2 °C 1021.6 hPa Calm     96 % 0.0 mm
02:27 9.9 °C 9.3 °C 1021.6 hPa Calm     96 % 0.0 mm
02:32 10.0 °C 9.4 °C 1021.6 hPa Calm     96 % 0.0 mm
02:37 10.1 °C 9.5 °C 1021.6 hPa Calm     96 % 0.0 mm
02:42 10.2 °C 9.6 °C 1021.6 hPa Calm     96 % 0.0 mm
02:47 10.2 °C 9.6 °C 1021.6 hPa Calm     96 % 0.0 mm
02:52 10.1 °C 9.5 °C 1021.6 hPa Calm     96 % 0.0 mm
02:57 9.8 °C 9.2 °C 1021.6 hPa Calm     96 % 0.0 mm
03:02 9.7 °C 9.1 °C 1021.6 hPa Calm     96 % 0.0 mm
03:07 9.6 °C 9.0 °C 1021.6 hPa Calm     96 % 0.0 mm
03:12 9.6 °C 9.0 °C 1021.6 hPa Calm     96 % 0.0 mm
03:17 9.4 °C 8.8 °C 1021.6 hPa Calm     96 % 0.0 mm
03:22 9.5 °C 9.0 °C 1021.6 hPa Calm     97 % 0.0 mm
03:27 9.6 °C 9.1 °C 1021.6 hPa Calm     97 % 0.0 mm
03:32 9.5 °C 8.9 °C 1021.6 hPa Calm     96 % 0.0 mm
03:37 9.4 °C 8.8 °C 1021.6 hPa Calm     96 % 0.0 mm
03:42 9.5 °C 9.0 °C 1021.6 hPa Calm     97 % 0.0 mm
03:47 9.5 °C 9.0 °C 1021.6 hPa Calm     97 % 0.0 mm
03:52 9.4 °C 8.8 °C 1021.6 hPa Calm     96 % 0.0 mm
04:02 9.3 °C 8.7 °C 1021.6 hPa Calm     96 % 0.0 mm
04:07 9.4 °C 8.9 °C 1021.6 hPa Calm     97 % 0.0 mm
04:12 9.5 °C 9.0 °C 1021.6 hPa Calm     97 % 0.0 mm
04:22 9.6 °C 9.1 °C 1021.6 hPa Calm   1.6 km/h 97 % 0.0 mm
04:32 9.6 °C 9.1 °C 1021.2 hPa Calm     97 % 0.0 mm
04:37 9.8 °C 9.3 °C 1021.2 hPa Calm     97 % 0.0 mm
04:42 9.8 °C 9.3 °C 1021.2 hPa Calm     97 % 0.0 mm
04:47 9.7 °C 9.2 °C 1021.2 hPa Calm   1.6 km/h 97 % 0.0 mm
04:52 9.7 °C 9.2 °C 1021.2 hPa Calm   1.6 km/h 97 % 0.0 mm
04:57 9.6 °C 9.0 °C 1021.2 hPa Calm   1.6 km/h 96 % 0.0 mm
05:02 9.4 °C 8.8 °C 1021.2 hPa Calm   1.6 km/h 96 % 0.0 mm
05:12 9.6 °C 9.1 °C 1021.2 hPa Calm     97 % 0.0 mm
05:32 9.6 °C 9.1 °C 1021.2 hPa Calm     97 % 0.0 mm
05:37 9.6 °C 9.1 °C 1021.2 hPa Calm     97 % 0.0 mm
05:42 9.5 °C 9.0 °C 1021.2 hPa Calm   1.6 km/h 97 % 0.0 mm
05:52 9.4 °C 8.9 °C 1021.2 hPa Calm   1.6 km/h 97 % 0.0 mm
05:57 9.4 °C 8.9 °C 1021.2 hPa Calm     97 % 0.0 mm
06:02 9.4 °C 8.9 °C 1021.2 hPa Calm     97 % 0.0 mm
06:12 9.4 °C 8.9 °C 1021.2 hPa Calm     97 % 0.0 mm
06:17 9.5 °C 9.0 °C 1021.2 hPa Calm     97 % 0.0 mm
06:22 9.6 °C 9.1 °C 1021.2 hPa Calm     97 % 0.0 mm
06:32 9.8 °C 9.3 °C 1021.2 hPa Calm     97 % 0.0 mm
06:37 9.8 °C 9.3 °C 1020.9 hPa Calm     97 % 0.0 mm
06:42 9.8 °C 9.3 °C 1021.2 hPa Calm     97 % 0.0 mm
06:47 9.8 °C 9.3 °C 1020.9 hPa Calm     97 % 0.0 mm
06:52 9.9 °C 9.4 °C 1021.2 hPa Calm     97 % 0.0 mm
07:02 9.9 °C 9.4 °C 1021.2 hPa Calm     97 % 0.0 mm
07:12 10.2 °C 9.7 °C 1021.2 hPa Calm     97 % 0.0 mm
07:17 10.3 °C 9.8 °C 1021.2 hPa Calm     97 % 0.0 mm
07:22 10.4 °C 9.9 °C 1021.2 hPa Calm     97 % 0.0 mm
07:32 10.7 °C 10.2 °C 1021.2 hPa Calm     97 % 0.0 mm
07:42 10.8 °C 10.3 °C 1021.6 hPa Calm     97 % 0.3 mm
07:47 10.9 °C 10.4 °C 1021.2 hPa Calm     97 % 0.3 mm
07:52 10.9 °C 10.4 °C 1021.2 hPa Calm     97 % 0.3 mm
08:02 11.0 °C 10.5 °C 1021.2 hPa Calm     97 % 0.3 mm
08:12 11.0 °C 10.5 °C 1021.2 hPa Calm     97 % 0.3 mm
08:17 11.1 °C 10.6 °C 1021.6 hPa SSW 1.6 km/h 1.6 km/h 97 % 0.3 mm
08:22 11.1 °C 10.6 °C 1021.6 hPa Calm   3.2 km/h 97 % 0.3 mm
08:32 11.2 °C 10.7 °C 1021.6 hPa SSW 1.6 km/h 3.2 km/h 97 % 0.3 mm
08:42 11.3 °C 10.8 °C 1021.6 hPa SSW 1.6 km/h 3.2 km/h 97 % 0.0 mm
08:47 11.4 °C 10.9 °C 1021.9 hPa Calm   3.2 km/h 97 % 0.0 mm
09:02 11.5 °C 11.0 °C 1021.9 hPa SSW 3.2 km/h 4.8 km/h 97 % 0.0 mm
09:12 11.6 °C 11.1 °C 1021.9 hPa Calm   3.2 km/h 97 % 0.0 mm
09:17 11.6 °C 11.1 °C 1021.9 hPa SSW 3.2 km/h 3.2 km/h 97 % 0.0 mm
09:22 11.7 °C 11.2 °C 1021.9 hPa SW 4.8 km/h 4.8 km/h 97 % 0.0 mm
09:32 11.7 °C 11.2 °C 1021.9 hPa SW 3.2 km/h 6.4 km/h 97 % 0.0 mm
09:42 11.8 °C 11.3 °C 1021.9 hPa SSW 1.6 km/h 6.4 km/h 97 % 0.0 mm
09:52 12.0 °C 11.5 °C 1021.9 hPa SW 1.6 km/h 8.0 km/h 97 % 0.0 mm
09:57 12.1 °C 11.6 °C 1022.2 hPa SW 3.2 km/h 8.0 km/h 97 % 0.0 mm
10:02 12.1 °C 11.6 °C 1022.2 hPa SW 8.0 km/h 8.0 km/h 97 % 0.0 mm
10:07 12.1 °C 11.6 °C 1022.2 hPa SW 4.8 km/h 9.7 km/h 97 % 0.0 mm
10:12 12.2 °C 11.7 °C 1022.2 hPa SW 3.2 km/h 9.7 km/h 97 % 0.0 mm
10:17 12.3 °C 11.8 °C 1022.2 hPa SSW 3.2 km/h 9.7 km/h 97 % 0.0 mm
10:22 12.3 °C 11.8 °C 1022.2 hPa SW 4.8 km/h 9.7 km/h 97 % 0.0 mm
10:27 12.4 °C 12.1 °C 1022.2 hPa SSW 3.2 km/h 9.7 km/h 98 % 0.0 mm
10:32 12.6 °C 12.3 °C 1022.2 hPa SW 8.0 km/h 9.7 km/h 98 % 0.0 mm
10:37 12.7 °C 12.4 °C 1022.2 hPa SW 4.8 km/h 9.7 km/h 98 % 0.0 mm
10:52 12.9 °C 12.4 °C 1022.2 hPa SW 8.0 km/h 11.3 km/h 97 % 0.0 mm
10:57 12.9 °C 12.4 °C 1022.2 hPa SW 4.8 km/h 11.3 km/h 97 % 0.0 mm
11:02 12.9 °C 12.4 °C 1022.2 hPa SW 4.8 km/h 11.3 km/h 97 % 0.0 mm
11:07 13.0 °C 12.5 °C 1022.2 hPa SW 3.2 km/h 11.3 km/h 97 % 0.0 mm
11:22 13.4 °C 13.1 °C 1022.2 hPa West 3.2 km/h 6.4 km/h 98 % 0.0 mm
11:32 13.5 °C 13.0 °C 1022.2 hPa West 9.7 km/h 9.7 km/h 97 % 0.0 mm
11:37 13.6 °C 13.1 °C 1022.2 hPa WSW 4.8 km/h 11.3 km/h 97 % 0.0 mm
11:42 13.7 °C 13.2 °C 1022.2 hPa Calm   11.3 km/h 97 % 0.0 mm
11:47 13.9 °C 13.4 °C 1022.2 hPa WSW 3.2 km/h 11.3 km/h 97 % 0.0 mm
11:57 14.0 °C 13.5 °C 1022.6 hPa SW 4.8 km/h 11.3 km/h 97 % 0.0 mm
12:02 14.1 °C 13.6 °C 1022.6 hPa WSW 9.7 km/h 11.3 km/h 97 % 0.0 mm
12:12 14.3 °C 13.7 °C 1022.6 hPa Calm   14.5 km/h 96 % 0.0 mm
12:17 14.3 °C 13.5 °C 1022.6 hPa SW 6.4 km/h 14.5 km/h 95 % 0.0 mm
12:22 14.3 °C 13.5 °C 1022.2 hPa South 3.2 km/h 11.3 km/h 95 % 0.0 mm
12:32 14.6 °C 13.6 °C 1022.2 hPa SW 4.8 km/h 11.3 km/h 94 % 0.0 mm
12:42 14.9 °C 13.6 °C 1022.2 hPa SW 11.3 km/h 11.3 km/h 92 % 0.0 mm
12:52 15.1 °C 13.5 °C 1022.6 hPa WNW 9.7 km/h 14.5 km/h 90 % 0.0 mm
12:57 15.4 °C 13.8 °C 1022.6 hPa SW 14.5 km/h 16.1 km/h 90 % 0.0 mm
13:02 15.6 °C 13.6 °C 1022.2 hPa SW 8.0 km/h 16.1 km/h 88 % 0.0 mm
13:12 15.8 °C 13.6 °C 1022.2 hPa WSW 8.0 km/h 14.5 km/h 87 % 0.0 mm
13:17 15.7 °C 13.5 °C 1022.2 hPa WNW 8.0 km/h 12.9 km/h 87 % 0.0 mm
13:22 15.8 °C 13.6 °C 1022.2 hPa West 6.4 km/h 12.9 km/h 87 % 0.0 mm
13:27 15.8 °C 13.3 °C 1022.2 hPa NW 4.8 km/h 12.9 km/h 85 % 0.0 mm
13:32 16.1 °C 13.9 °C 1022.2 hPa SW 4.8 km/h 12.9 km/h 87 % 0.0 mm
13:37 16.1 °C 13.6 °C 1022.2 hPa WSW 4.8 km/h 12.9 km/h 85 % 0.0 mm
13:42 16.0 °C 13.7 °C 1022.2 hPa SSW 8.0 km/h 16.1 km/h 86 % 0.0 mm
13:47 16.1 °C 13.6 °C 1022.2 hPa SSW 12.9 km/h 16.1 km/h 85 % 0.0 mm
13:52 16.1 °C 13.6 °C 1021.9 hPa SW 4.8 km/h 17.7 km/h 85 % 0.0 mm
14:02 16.2 °C 13.5 °C 1021.9 hPa WSW 11.3 km/h 17.7 km/h 84 % 0.0 mm
14:07 16.3 °C 13.6 °C 1021.9 hPa WNW 9.7 km/h 17.7 km/h 84 % 0.0 mm
14:12 16.4 °C 13.7 °C 1021.9 hPa WSW 11.3 km/h 17.7 km/h 84 % 0.0 mm
14:17 16.3 °C 13.4 °C 1021.9 hPa SW 12.9 km/h 17.7 km/h 83 % 0.0 mm
14:22 16.2 °C 13.5 °C 1021.9 hPa West 9.7 km/h 19.3 km/h 84 % 0.0 mm
14:27 16.3 °C 13.8 °C 1021.9 hPa SSW 9.7 km/h 19.3 km/h 85 % 0.0 mm
14:32 16.1 °C 13.6 °C 1021.9 hPa WSW 11.3 km/h 19.3 km/h 85 % 0.0 mm
14:37 16.1 °C 13.6 °C 1021.9 hPa SW 11.3 km/h 20.9 km/h 85 % 0.0 mm
14:42 16.2 °C 13.5 °C 1021.9 hPa WSW 11.3 km/h 20.9 km/h 84 % 0.0 mm
14:47 16.1 °C 13.6 °C 1021.9 hPa SSW 11.3 km/h 19.3 km/h 85 % 0.0 mm
14:52 16.1 °C 13.6 °C 1021.9 hPa SW 8.0 km/h 19.3 km/h 85 % 0.0 mm
14:57 16.3 °C 14.0 °C 1021.9 hPa WSW 9.7 km/h 19.3 km/h 86 % 0.0 mm
15:02 16.4 °C 13.9 °C 1021.9 hPa WSW 4.8 km/h 16.1 km/h 85 % 0.0 mm
15:07 16.7 °C 14.2 °C 1021.6 hPa SSW 8.0 km/h 16.1 km/h 85 % 0.0 mm
15:12 17.0 °C 13.9 °C 1021.6 hPa SW 6.4 km/h 16.1 km/h 82 % 0.0 mm
15:17 16.9 °C 13.8 °C 1021.6 hPa WSW 11.3 km/h 16.1 km/h 82 % 0.0 mm
15:22 16.8 °C 13.5 °C 1021.6 hPa West 9.7 km/h 20.9 km/h 81 % 0.0 mm
15:27 16.9 °C 13.6 °C 1021.6 hPa WNW 9.7 km/h 22.5 km/h 81 % 0.0 mm
15:32 16.9 °C 13.4 °C 1021.2 hPa SW 8.0 km/h 22.5 km/h 80 % 0.0 mm
15:37 17.2 °C 13.7 °C 1021.2 hPa SW 12.9 km/h 22.5 km/h 80 % 0.0 mm
15:42 17.3 °C 13.6 °C 1021.2 hPa WSW 17.7 km/h 24.1 km/h 79 % 0.0 mm
15:47 17.5 °C 13.6 °C 1021.2 hPa SSW 6.4 km/h 24.1 km/h 78 % 0.0 mm
15:52 17.7 °C 13.8 °C 1021.2 hPa SW 8.0 km/h 24.1 km/h 78 % 0.0 mm
15:57 17.7 °C 13.6 °C 1021.2 hPa West 17.7 km/h 20.9 km/h 77 % 0.0 mm
16:02 17.4 °C 13.3 °C 1021.6 hPa SW 8.0 km/h 20.9 km/h 77 % 0.0 mm
16:07 17.2 °C 13.1 °C 1021.2 hPa SW 8.0 km/h 20.9 km/h 77 % 0.0 mm
16:12 17.1 °C 13.4 °C 1021.2 hPa West 14.5 km/h 20.9 km/h 79 % 0.0 mm
16:17 16.9 °C 13.2 °C 1021.6 hPa WSW 3.2 km/h 22.5 km/h 79 % 0.0 mm
16:22 16.8 °C 13.1 °C 1021.6 hPa WSW 3.2 km/h 22.5 km/h 79 % 0.0 mm
16:27 16.7 °C 13.2 °C 1021.6 hPa West 12.9 km/h 22.5 km/h 80 % 0.0 mm
16:32 16.4 °C 12.9 °C 1021.6 hPa West 8.0 km/h 20.9 km/h 80 % 0.0 mm
16:37 16.2 °C 12.9 °C 1021.6 hPa West 9.7 km/h 20.9 km/h 81 % 0.0 mm
16:42 16.2 °C 13.1 °C 1021.6 hPa West 8.0 km/h 20.9 km/h 82 % 0.0 mm
16:47 16.1 °C 12.8 °C 1021.6 hPa SW 11.3 km/h 20.9 km/h 81 % 0.0 mm
16:52 16.1 °C 13.0 °C 1021.6 hPa WSW 3.2 km/h 17.7 km/h 82 % 0.0 mm
16:57 16.0 °C 12.7 °C 1021.6 hPa WNW 12.9 km/h 17.7 km/h 81 % 0.0 mm
17:02 16.0 °C 12.9 °C 1021.6 hPa West 6.4 km/h 16.1 km/h 82 % 0.0 mm
17:07 15.9 °C 12.8 °C 1021.6 hPa West 12.9 km/h 16.1 km/h 82 % 0.0 mm
17:12 15.9 °C 12.8 °C 1021.6 hPa NW 9.7 km/h 17.7 km/h 82 % 0.0 mm
17:17 15.9 °C 13.0 °C 1021.6 hPa West 4.8 km/h 17.7 km/h 83 % 0.0 mm
17:22 16.0 °C 13.1 °C 1021.6 hPa WNW 4.8 km/h 17.7 km/h 83 % 0.0 mm
17:27 16.0 °C 13.1 °C 1021.6 hPa WSW 4.8 km/h 16.1 km/h 83 % 0.0 mm
17:32 16.0 °C 13.1 °C 1021.6 hPa WSW 4.8 km/h 16.1 km/h 83 % 0.0 mm
17:37 16.0 °C 13.1 °C 1021.6 hPa SW 11.3 km/h 12.9 km/h 83 % 0.0 mm
17:42 15.9 °C 13.0 °C 1021.6 hPa WSW 4.8 km/h 11.3 km/h 83 % 0.0 mm
17:47 15.9 °C 13.2 °C 1021.6 hPa SW 6.4 km/h 11.3 km/h 84 % 0.0 mm
17:52 15.9 °C 13.2 °C 1021.6 hPa WSW 3.2 km/h 11.3 km/h 84 % 0.0 mm
17:57 15.9 °C 13.2 °C 1021.6 hPa WSW 1.6 km/h 11.3 km/h 84 % 0.0 mm
18:02 15.9 °C 13.2 °C 1021.6 hPa West 1.6 km/h 9.7 km/h 84 % 0.0 mm
18:07 15.9 °C 13.2 °C 1021.6 hPa WSW 1.6 km/h 8.0 km/h 84 % 0.0 mm
18:12 15.9 °C 13.4 °C 1021.6 hPa Calm   6.4 km/h 85 % 0.0 mm
18:17 15.8 °C 13.3 °C 1021.6 hPa SW 1.6 km/h 6.4 km/h 85 % 0.0 mm
18:32 15.8 °C 13.3 °C 1021.9 hPa West 1.6 km/h 4.8 km/h 85 % 0.0 mm
18:37 15.8 °C 13.3 °C 1021.9 hPa West 1.6 km/h 6.4 km/h 85 % 0.0 mm
18:42 15.7 °C 13.2 °C 1021.9 hPa Calm   6.4 km/h 85 % 0.0 mm
18:47 15.7 °C 13.2 °C 1021.9 hPa WNW 3.2 km/h 6.4 km/h 85 % 0.0 mm
18:52 15.7 °C 13.0 °C 1021.9 hPa West 1.6 km/h 8.0 km/h 84 % 0.0 mm
18:57 15.6 °C 12.7 °C 1021.9 hPa Calm   8.0 km/h 83 % 0.0 mm
19:02 15.6 °C 12.9 °C 1021.9 hPa Calm   8.0 km/h 84 % 0.0 mm
19:07 15.6 °C 12.9 °C 1021.9 hPa West 3.2 km/h 3.2 km/h 84 % 0.0 mm
19:12 15.5 °C 12.8 °C 1021.9 hPa West 3.2 km/h 3.2 km/h 84 % 0.0 mm
19:17 15.4 °C 12.7 °C 1021.9 hPa West 1.6 km/h 4.8 km/h 84 % 0.0 mm
19:22 15.4 °C 12.7 °C 1021.9 hPa WSW 1.6 km/h 4.8 km/h 84 % 0.0 mm
19:27 15.4 °C 12.7 °C 1022.2 hPa Calm   4.8 km/h 84 % 0.0 mm
19:32 15.3 °C 12.6 °C 1022.2 hPa Calm   4.8 km/h 84 % 0.0 mm
19:37 15.3 °C 12.8 °C 1022.2 hPa Calm   3.2 km/h 85 % 0.0 mm
19:42 15.2 °C 12.7 °C 1022.2 hPa Calm   1.6 km/h 85 % 0.0 mm
19:47 15.2 °C 12.9 °C 1022.2 hPa WSW 1.6 km/h 1.6 km/h 86 % 0.0 mm
19:52 15.1 °C 12.8 °C 1022.2 hPa Calm   3.2 km/h 86 % 0.0 mm
19:57 15.1 °C 12.8 °C 1022.2 hPa WNW 1.6 km/h 4.8 km/h 86 % 0.0 mm
20:02 15.0 °C 12.7 °C 1022.2 hPa West 3.2 km/h 6.4 km/h 86 % 0.0 mm
20:07 14.9 °C 12.6 °C 1022.2 hPa WNW 1.6 km/h 9.7 km/h 86 % 0.0 mm
20:12 14.9 °C 12.6 °C 1022.2 hPa West 3.2 km/h 9.7 km/h 86 % 0.0 mm
20:17 14.8 °C 12.5 °C 1022.2 hPa WNW 3.2 km/h 11.3 km/h 86 % 0.0 mm
20:22 14.8 °C 12.5 °C 1022.2 hPa NW 6.4 km/h 11.3 km/h 86 % 0.0 mm
20:27 14.8 °C 12.5 °C 1022.2 hPa WSW 3.2 km/h 16.1 km/h 86 % 0.0 mm
20:32 14.8 °C 12.3 °C 1022.2 hPa WNW 3.2 km/h 16.1 km/h 85 % 0.0 mm
20:37 14.8 °C 12.5 °C 1022.2 hPa WNW 4.8 km/h 16.1 km/h 86 % 0.0 mm
20:42 14.8 °C 12.3 °C 1022.2 hPa West 4.8 km/h 12.9 km/h 85 % 0.0 mm
20:47 14.8 °C 12.3 °C 1022.2 hPa Calm   9.7 km/h 85 % 0.0 mm
20:52 14.8 °C 12.5 °C 1022.2 hPa WSW 3.2 km/h 9.7 km/h 86 % 0.0 mm
20:57 14.7 °C 12.4 °C 1022.2 hPa WSW 1.6 km/h 6.4 km/h 86 % 0.0 mm
21:02 14.7 °C 12.4 °C 1022.2 hPa West 3.2 km/h 4.8 km/h 86 % 0.0 mm
21:07 14.6 °C 12.3 °C 1022.2 hPa Calm   4.8 km/h 86 % 0.0 mm
21:12 14.6 °C 12.3 °C 1022.2 hPa Calm   4.8 km/h 86 % 0.0 mm
21:17 14.6 °C 12.5 °C 1022.2 hPa Calm   3.2 km/h 87 % 0.0 mm
21:22 14.5 °C 12.4 °C 1022.2 hPa Calm   1.6 km/h 87 % 0.0 mm
21:32 14.4 °C 12.3 °C 1022.2 hPa Calm   1.6 km/h 87 % 0.0 mm
21:42 14.4 °C 12.3 °C 1022.2 hPa Calm   1.6 km/h 87 % 0.0 mm
21:47 14.4 °C 12.3 °C 1022.2 hPa Calm   1.6 km/h 87 % 0.0 mm
21:52 14.3 °C 12.2 °C 1022.2 hPa Calm     87 % 0.0 mm
21:57 14.4 °C 12.3 °C 1022.2 hPa Calm     87 % 0.0 mm
22:02 14.4 °C 12.3 °C 1022.6 hPa Calm     87 % 0.0 mm
22:07 14.4 °C 12.3 °C 1022.6 hPa West 1.6 km/h 1.6 km/h 87 % 0.0 mm
22:12 14.3 °C 12.3 °C 1022.6 hPa Calm   1.6 km/h 88 % 0.0 mm
22:17 14.3 °C 12.3 °C 1022.6 hPa Calm   1.6 km/h 88 % 0.0 mm
22:22 14.3 °C 12.3 °C 1022.6 hPa Calm   1.6 km/h 88 % 0.0 mm
22:27 14.3 °C 12.3 °C 1022.6 hPa Calm   1.6 km/h 88 % 0.0 mm
22:32 14.2 °C 12.2 °C 1022.6 hPa Calm     88 % 0.0 mm
22:37 14.2 °C 12.2 °C 1022.6 hPa Calm   1.6 km/h 88 % 0.0 mm
22:42 14.2 °C 12.2 °C 1022.6 hPa Calm   1.6 km/h 88 % 0.0 mm
22:52 14.2 °C 12.2 °C 1022.6 hPa Calm   1.6 km/h 88 % 0.0 mm
23:02 14.1 °C 12.3 °C 1022.6 hPa Calm     89 % 0.0 mm
23:07 13.9 °C 12.1 °C 1022.6 hPa Calm     89 % 0.0 mm
23:12 13.9 °C 12.3 °C 1022.6 hPa Calm     90 % 0.0 mm
23:17 13.8 °C 12.2 °C 1022.6 hPa Calm     90 % 0.0 mm
23:22 13.7 °C 12.3 °C 1022.6 hPa Calm     91 % 0.0 mm
23:27 13.7 °C 12.3 °C 1022.6 hPa Calm     91 % 0.0 mm
23:32 13.6 °C 12.2 °C 1022.6 hPa Calm     91 % 0.0 mm
23:37 13.6 °C 12.2 °C 1022.6 hPa Calm     91 % 0.0 mm
23:42 13.6 °C 12.3 °C 1022.6 hPa Calm   1.6 km/h 92 % 0.0 mm
23:47 13.5 °C 12.2 °C 1022.6 hPa Calm   1.6 km/h 92 % 0.0 mm
23:52 13.4 °C 12.1 °C 1022.6 hPa Calm   1.6 km/h 92 % 0.0 mm
23:57 13.4 °C 12.1 °C 1022.6 hPa Calm     92 % 0.0 mm
Meteo18
Compliments of Weather Underground - 4 mb

Script developed by  Jim McMurry - jmcmurry@mwt.net Adapted for the template by  Wim van der Kuil - Leuven-Template.eu

You find our weather info also at:

European Weather Network

Weather Underground

Equipment we use:

Weather-station
Davis Vue

Weather-program
Meteohub

Weather-server
Raspberry PI 2 B+

Provider
1 and 1

Davis Vue

Meteohub

Raspberry PI 2 B+

1 and 1